createdAt,value
2023-03-27T00:01:49.510Z,1.90
2023-03-27T00:03:50.186Z,2.30
2023-03-27T00:05:50.523Z,2.10
2023-03-27T00:07:50.801Z,2.30
2023-03-27T00:09:51.132Z,2.30
2023-03-27T00:11:51.406Z,2.30
2023-03-27T00:13:51.688Z,2.40
2023-03-27T00:15:51.982Z,3.10
2023-03-27T00:17:52.334Z,3.20
2023-03-27T00:19:52.601Z,3.80
2023-03-27T00:21:52.916Z,3.10
2023-03-27T00:23:53.186Z,3.80
2023-03-27T00:25:53.516Z,4.50
2023-03-27T00:27:53.825Z,4.90
2023-03-27T00:29:54.078Z,4.70
2023-03-27T00:31:54.405Z,4.80
2023-03-27T00:33:54.698Z,5.30
2023-03-27T00:35:55.010Z,5.60
2023-03-27T00:37:56.046Z,5.80
2023-03-27T00:39:56.341Z,5.40
2023-03-27T00:41:56.623Z,5.40
2023-03-27T00:43:56.903Z,5.60
2023-03-27T00:45:57.193Z,5.20
2023-03-27T00:47:57.543Z,6.30
2023-03-27T00:49:57.849Z,6.40
2023-03-27T00:51:58.133Z,7.40
2023-03-27T00:53:58.467Z,6.30
2023-03-27T00:55:58.783Z,6.50
2023-03-27T00:57:59.059Z,6.50
2023-03-27T00:59:59.348Z,6.70
2023-03-27T01:01:59.668Z,6.50
2023-03-27T01:03:59.949Z,6.30
2023-03-27T01:06:00.262Z,7.30
2023-03-27T01:08:01.793Z,7.10
2023-03-27T01:10:02.267Z,6.90
2023-03-27T01:12:02.597Z,7.70
2023-03-27T01:14:02.914Z,7.50
2023-03-27T01:16:03.237Z,7.80
2023-03-27T01:18:03.604Z,6.60
2023-03-27T01:20:03.923Z,5.20
2023-03-27T01:22:04.227Z,5.60
2023-03-27T01:24:04.497Z,5.60
2023-03-27T01:26:04.828Z,5.90
2023-03-27T01:28:05.146Z,5.40
2023-03-27T01:30:05.428Z,5.70
2023-03-27T01:32:05.761Z,5.30
2023-03-27T01:34:06.010Z,4.90
2023-03-27T01:36:07.012Z,4.70
2023-03-27T01:38:07.287Z,4.60
2023-03-27T01:40:07.598Z,5.00
2023-03-27T01:42:07.929Z,5.00
2023-03-27T01:44:08.166Z,5.30
2023-03-27T01:46:08.509Z,5.20
2023-03-27T01:48:08.795Z,4.60
2023-03-27T01:50:09.092Z,5.10
2023-03-27T01:52:09.379Z,3.30
2023-03-27T01:54:09.689Z,4.30
2023-03-27T01:56:09.964Z,3.20
2023-03-27T01:58:10.248Z,4.00
2023-03-27T02:00:17.917Z,3.70
2023-03-27T02:02:15.746Z,2.80
2023-03-27T02:04:16.040Z,3.30
2023-03-27T02:06:16.352Z,3.00
2023-03-27T02:08:16.653Z,2.90
2023-03-27T02:10:16.940Z,2.90
2023-03-27T02:12:17.266Z,3.30
2023-03-27T02:14:17.541Z,3.00
2023-03-27T02:16:17.865Z,2.60
2023-03-27T02:18:18.149Z,2.60
2023-03-27T02:20:18.486Z,2.40
2023-03-27T02:22:18.754Z,3.00
2023-03-27T02:24:19.113Z,3.10
2023-03-27T02:26:19.371Z,3.10
2023-03-27T02:28:19.689Z,2.50
2023-03-27T02:30:19.968Z,2.80
2023-03-27T02:32:20.349Z,2.20
2023-03-27T02:34:20.647Z,3.20
2023-03-27T02:36:20.978Z,2.90
2023-03-27T02:38:21.268Z,2.30
2023-03-27T02:40:21.578Z,2.10
2023-03-27T02:42:21.888Z,2.70
2023-03-27T02:44:22.199Z,2.30
2023-03-27T02:46:22.533Z,2.20
2023-03-27T02:48:22.780Z,2.50
2023-03-27T02:50:23.116Z,2.00
2023-03-27T02:52:23.450Z,2.80
2023-03-27T02:54:23.738Z,2.10
2023-03-27T02:56:24.051Z,2.30
2023-03-27T02:58:24.331Z,2.20
2023-03-27T03:00:24.663Z,1.90
2023-03-27T03:02:25.089Z,2.30
2023-03-27T03:04:25.437Z,2.30
2023-03-27T03:06:25.752Z,2.30
2023-03-27T03:08:26.035Z,2.10
2023-03-27T03:10:26.326Z,2.10
2023-03-27T03:12:26.642Z,2.50
2023-03-27T03:14:26.972Z,1.90
2023-03-27T03:16:27.280Z,2.60
2023-03-27T03:18:27.649Z,2.10
2023-03-27T03:20:27.959Z,2.50
2023-03-27T03:22:28.261Z,1.70
2023-03-27T03:24:28.580Z,2.20
2023-03-27T03:26:28.867Z,1.90
2023-03-27T03:28:29.225Z,1.80
2023-03-27T03:30:29.537Z,2.00
2023-03-27T03:32:29.884Z,1.90
2023-03-27T03:34:30.190Z,2.10
2023-03-27T03:36:30.505Z,2.50
2023-03-27T03:38:37.661Z,1.90
2023-03-27T03:40:36.021Z,2.00
2023-03-27T03:42:36.295Z,1.80
2023-03-27T03:44:36.582Z,1.80
2023-03-27T03:46:36.989Z,2.00
2023-03-27T03:48:37.296Z,1.90
2023-03-27T03:50:37.574Z,2.10
2023-03-27T03:52:37.902Z,2.50
2023-03-27T03:54:38.218Z,2.30
2023-03-27T03:56:38.561Z,2.00
2023-03-27T03:58:38.852Z,1.90
2023-03-27T04:00:39.106Z,1.90
2023-03-27T04:02:39.473Z,2.00
2023-03-27T04:04:39.814Z,1.80
2023-03-27T04:06:40.115Z,1.80
2023-03-27T04:08:40.459Z,2.60
2023-03-27T04:10:40.705Z,1.70
2023-03-27T04:12:41.048Z,2.30
2023-03-27T04:14:41.337Z,1.70
2023-03-27T04:16:41.658Z,1.90
2023-03-27T04:18:42.030Z,1.70
2023-03-27T04:20:42.358Z,2.60
2023-03-27T04:22:42.637Z,2.30
2023-03-27T04:24:42.914Z,1.80
2023-03-27T04:26:43.237Z,2.30
2023-03-27T04:28:43.605Z,2.20
2023-03-27T04:30:43.894Z,2.20
2023-03-27T04:32:44.216Z,2.60
2023-03-27T04:34:44.557Z,2.90
2023-03-27T04:36:44.832Z,1.90
2023-03-27T04:38:45.140Z,1.80
2023-03-27T04:40:45.480Z,2.00
2023-03-27T04:42:45.819Z,1.60
2023-03-27T04:44:46.132Z,1.70
2023-03-27T04:46:46.444Z,2.00
2023-03-27T04:48:46.835Z,2.60
2023-03-27T04:50:47.077Z,2.40
2023-03-27T04:52:49.039Z,2.20
2023-03-27T04:54:50.661Z,2.00
2023-03-27T04:56:51.059Z,1.90
2023-03-27T04:58:51.439Z,1.70
2023-03-27T05:00:51.700Z,1.80
2023-03-27T05:02:52.122Z,19.10
2023-03-27T05:04:52.558Z,14.20
2023-03-27T05:06:52.854Z,8.50
2023-03-27T05:08:55.624Z,21.10
2023-03-27T05:10:56.618Z,3.10
2023-03-27T05:12:58.412Z,3.50
2023-03-27T05:15:50.864Z,3.70
2023-03-27T05:18:34.136Z,3.10
